Data for 05/04/2017

Time Sea-Level Adjusted Pressure Absolute Pressure Temperature Relative Humidity Dew Point   
(mb) (inHg) (mb) (inHg) (C) (F) (%) (C) (F)
00:05 1024 30.24 853 25.19 10 50 47 -0.9 30.4
00:10 1024 30.24 853 25.19 9.8 49.6 48 -0.6 31
00:15 1024 30.24 853 25.19 9.4 49 49 -0.7 30.8
00:20 1024 30.24 853 25.19 9.4 49 48 -0.8 30.5
00:25 1024 30.24 853 25.19 9.6 49.3 49 -0.5 31.1
00:30 1024 30.24 853 25.19 9.7 49.4 50 -0.3 31.4
00:35 1024 30.24 853 25.19 9.4 49 50 -0.5 31.2
00:40 1024 30.24 853 25.19 9.3 48.7 51 -0.3 31.5
00:45 1024 30.24 853 25.19 9 48.1 52 -0.2 31.6
00:50 1024 30.24 853 25.19 8.9 48 53 -0.2 31.6
00:55 1024 30.24 853 25.19 8.8 47.8 53 -0.3 31.5
01:00 1024 30.24 853 25.19 8.7 47.7 53 -0.3 31.4
01:05 1024 30.24 853 25.19 8.8 47.8 53 -0.2 31.6
01:10 1024 30.24 853 25.19 8.7 47.6 53 -0.2 31.6
01:15 1024 30.24 853 25.19 8.7 47.6 54 -0.1 31.9
01:20 1024 30.24 853 25.19 8.6 47.5 54 -0.2 31.6
01:25 1024 30.24 853 25.19 8.8 47.8 54 0.1 32.1
01:30 1024 30.24 853 25.19 8.7 47.6 54 0 32.1
01:35 1024 30.24 853 25.19 8.5 47.3 55 -0.1 31.9
01:40 1024 30.24 853 25.19 8.6 47.5 54 -0.1 31.9
01:45 1024 30.24 853 25.19 8.7 47.6 54 -0 32
01:50 1024 30.24 853 25.19 8.8 47.8 53 -0.2 31.7
01:55 1024 30.24 853 25.19 8.7 47.7 54 -0.1 31.9
02:00 1024 30.24 853 25.19 8.7 47.7 54 0 32
02:05 1024 30.24 853 25.19 8.5 47.4 54 -0.1 31.8
02:10 1024 30.24 853 25.19 8.3 47 55 -0.1 31.9
02:15 1024 30.24 853 25.19 7.8 46 58 -0 31.9
02:20 1024 30.24 853 25.19 7.5 45.4 58 -0.2 31.6
02:25 1024 30.24 853 25.19 7.7 45.8 57 -0.2 31.6
02:30 1024 30.24 853 25.19 7.6 45.6 58 -0.1 31.7
02:35 1024 30.24 853 25.19 7.5 45.4 58 -0.2 31.7
02:40 1024 30.24 853 25.19 7.4 45.3 59 -0.1 31.8
02:45 1024 30.24 853 25.19 7.4 45.4 58 -0.2 31.7
02:50 1024 30.24 853 25.19 7.9 46.2 57 0 32
02:55 1024 30.24 853 25.19 8.3 47 56 -0 32
03:00 1024 30.24 853 25.19 8.5 47.3 56 0.2 32.4
03:05 1024 30.24 853 25.19 8.5 47.3 56 0.3 32.6
03:10 1024 30.24 853 25.19 8.2 46.8 58 0.4 32.8
03:15 1024 30.24 853 25.19 8.2 46.8 59 0.6 33.1
03:20 1024 30.24 853 25.19 8.1 46.5 59 0.7 33.2
03:25 1024 30.24 853 25.19 7.9 46.2 59 0.3 32.6
03:30 1024 30.24 853 25.19 7.9 46.1 59 0.4 32.8
03:35 1024 30.24 853 25.19 7.8 46 60 0.5 32.9
03:40 1024 30.24 853 25.19 7.7 45.8 60 0.4 32.8
03:45 1024 30.24 853 25.19 7.7 45.8 60 0.4 32.8
03:50 1024 30.24 853 25.19 7.7 45.8 60 0.4 32.8
03:55 1024 30.24 853 25.19 7.8 46 60 0.6 33
04:00 1024 30.24 853 25.19 7.8 46 60 0.5 33
04:05 1024 30.24 853 25.19 7.9 46.3 60 0.6 33.2
04:10 1024 30.24 853 25.19 7.9 46.1 60 0.6 33.1
04:15 1024 30.24 854 25.22 8 46.4 59 0.6 33.1
04:20 1024 30.24 853 25.19 8.2 46.8 59 0.7 33.2
04:25 1024 30.24 854 25.22 8.3 46.9 59 0.7 33.2
04:30 1024 30.24 854 25.22 8.1 46.6 60 0.8 33.4
04:35 1024 30.24 854 25.22 8 46.4 60 0.8 33.4
04:40 1024 30.24 854 25.22 7.5 45.5 62 0.7 33.3
04:45 1024 30.24 854 25.22 7.1 44.8 63 0.5 32.9
04:50 1024 30.24 854 25.22 7.1 44.7 63 0.5 33
04:55 1024 30.24 854 25.22 7.1 44.8 63 0.5 32.9
05:00 1025 30.27 854 25.22 7.3 45.1 62 0.5 32.9
05:05 1025 30.27 854 25.22 7.4 45.3 61 0.5 32.9
05:10 1025 30.27 854 25.22 7.5 45.5 61 0.6 33
05:15 1025 30.27 854 25.22 7.4 45.3 62 0.6 33.1
05:20 1025 30.27 854 25.22 7.3 45.2 62 0.6 33
05:25 1025 30.27 854 25.22 7.3 45.1 62 0.6 33.1
05:30 1025 30.27 854 25.22 7.4 45.2 63 0.8 33.4
05:35 1025 30.27 854 25.22 7.4 45.3 62 0.7 33.2
05:40 1025 30.27 854 25.22 7.7 45.8 60 0.5 32.8
05:45 1025 30.27 854 25.22 8.1 46.5 60 0.8 33.4
05:50 1025 30.27 854 25.22 8.4 47.1 58 0.8 33.4
05:55 1025 30.27 854 25.22 8.7 47.6 58 0.8 33.5
06:00 1025 30.27 854 25.22 8.8 47.8 58 1 33.8
06:05 1025 30.27 854 25.22 8.8 47.8 58 0.9 33.7
06:10 1025 30.27 854 25.22 8.9 48 57 1 33.7
06:15 1025 30.27 854 25.22 9.1 48.5 57 1.1 33.9
06:20 1025 30.27 854 25.22 9.4 48.9 56 1.1 34.1
06:25 1025 30.27 854 25.22 9.7 49.5 55 1.2 34.1
06:30 1025 30.27 854 25.22 9.9 49.8 55 1.3 34.4
06:35 1025 30.27 854 25.22 10.5 50.9 53 1.4 34.4
06:40 1025 30.27 854 25.22 11.1 51.9 51 1.5 34.7
06:45 1025 30.27 854 25.22 11.8 53.2 49 1.4 34.5
06:50 1025 30.27 854 25.22 12 53.6 49 1.6 35
06:55 1025 30.27 854 25.22 11.9 53.4 49 1.6 34.8
07:00 1025 30.27 854 25.22 12.4 54.3 47 1.6 34.8
07:05 1025 30.27 854 25.22 12.7 54.8 46 1.4 34.6
07:10 1025 30.27 855 25.25 13.1 55.6 45 1.7 35
07:15 1025 30.27 855 25.25 13.4 56 44 1.6 34.8
07:20 1025 30.27 855 25.25 13.9 57 43 1.7 35
07:25 1025 30.27 855 25.25 14.1 57.5 42 1.6 34.9
07:30 1025 30.27 855 25.25 14.1 57.4 42 1.6 34.9
07:35 1025 30.27 855 25.25 13.9 57 43 1.5 34.7
07:40 1025 30.27 855 25.25 13.7 56.6 47 2.6 36.7
07:45 1025 30.27 855 25.25 12.9 55.2 48 2.3 36.2
07:50 1025 30.27 855 25.25 13.5 56.2 45 2 35.5
07:55 1025 30.27 855 25.25 14.2 57.5 43 1.8 35.2
08:00 1025 30.27 854 25.22 14.8 58.6 41 1.6 34.9
08:05 1025 30.27 854 25.22 14.7 58.5 43 2.5 36.4
08:10 1025 30.27 854 25.22 14.1 57.4 44 2.1 35.7
08:15 1025 30.27 854 25.22 14.8 58.6 42 2 35.7
08:20 1025 30.27 854 25.22 15 58.9 42 2.2 35.9
08:25 1025 30.27 854 25.22 15.9 60.5 39 2.2 35.9
08:30 1025 30.27 854 25.22 16.5 61.6 39 2.4 36.3
08:35 1025 30.27 854 25.22 16.2 61.2 40 2.7 36.8
08:40 1025 30.27 854 25.22 16.6 61.8 38 2.1 35.8
08:45 1025 30.27 854 25.22 16.2 61.2 39 2.3 36.2
08:50 1025 30.27 854 25.22 16.7 62 37 2 35.7
08:55 1025 30.27 854 25.22 17.1 62.8 36 1.9 35.5
09:00 1025 30.27 854 25.22 16.5 61.8 38 2.4 36.3
09:05 1025 30.27 854 25.22 16.3 61.4 38 1.9 35.5
09:10 1025 30.27 854 25.22 17.1 62.8 36 2 35.6
09:15 1025 30.27 854 25.22 17.1 62.7 37 2.5 36.5
09:20 1025 30.27 854 25.22 17.2 63 33 1 33.8
09:25 1025 30.27 854 25.22 18.1 64.6 32 1.3 34.4
09:30 1025 30.27 854 25.22 18.2 64.7 33 1.6 34.9
09:35 1025 30.27 854 25.22 17.7 63.9 34 1.6 34.9
09:40 1025 30.27 854 25.22 18.4 65 31 1.2 34.2
09:45 1025 30.27 854 25.22 18.8 65.8 32 1.7 35
09:50 1025 30.27 854 25.22 18.8 65.8 32 1.8 35.2
09:55 1025 30.27 854 25.22 19.1 66.5 32 2.1 35.8
10:00 1025 30.27 854 25.22 19.3 66.7 31 1.7 35
10:05 1025 30.27 854 25.22 19.5 67.1 31 2.3 36.1
10:10 1025 30.27 854 25.22 19.8 67.7 30 1.9 35.4
10:15 1025 30.27 854 25.22 19.8 67.7 29 1.3 34.4
10:20 1025 30.27 854 25.22 19.9 67.8 29 1.6 34.9
10:25 1025 30.27 854 25.22 19.5 67 29 1.2 34.2
10:30 1025 30.27 854 25.22 19.3 66.7 29 1 33.8
10:35 1025 30.27 854 25.22 19 66.2 30 1.2 34.2
10:40 1025 30.27 854 25.22 19.8 67.7 28 1.1 34
10:45 1025 30.27 854 25.22 20.1 68.1 27 0.7 33.2
10:50 1024 30.24 854 25.22 20.3 68.5 28 1.2 34.2
10:55 1024 30.24 854 25.22 20.4 68.8 27 0.8 33.5
11:00 1024 30.24 854 25.22 20.2 68.3 27 0.7 33.3
11:05 1024 30.24 853 25.19 20.5 68.8 28 1.7 35.1
11:10 1024 30.24 853 25.19 20.6 69.1 27 1.2 34.1
11:15 1024 30.24 853 25.19 20.7 69.3 27 1.4 34.5
11:20 1024 30.24 853 25.19 21.1 70 27 1.7 35
11:25 1024 30.24 853 25.19 21.3 70.3 28 2 35.7
11:30 1024 30.24 853 25.19 20.9 69.6 25 0.5 32.9
11:35 1024 30.24 853 25.19 21.2 70.1 27 1.7 35.1
11:40 1024 30.24 853 25.19 21.4 70.6 26 1.3 34.4
11:45 1024 30.24 853 25.19 21.4 70.5 27 1.7 35.1
11:50 1024 30.24 853 25.19 20.7 69.2 28 1.6 34.9
11:55 1024 30.24 853 25.19 20.6 69.1 28 1.8 35.2
12:00 1024 30.24 853 25.19 21 69.9 26 1 33.7
12:05 1024 30.24 853 25.19 21.5 70.8 26 1.6 34.9
12:10 1024 30.24 853 25.19 20.7 69.3 27 1.2 34.2
12:15 1024 30.24 853 25.19 20.6 69.1 27 1.1 34
12:20 1023 30.21 853 25.19 21.1 70 26 1.3 34.3
12:25 1023 30.21 853 25.19 21.5 70.8 25 1 33.8
12:30 1023 30.21 853 25.19 22 71.6 24 0.9 33.6
12:35 1023 30.21 853 25.19 22.5 72.4 24 1.1 33.9
12:40 1023 30.21 853 25.19 21.9 71.5 24 0.9 33.5
12:45 1023 30.21 852 25.16 22.6 72.7 23 0.8 33.4
12:50 1023 30.21 852 25.16 22.1 71.8 25 1.5 34.7
12:55 1023 30.21 852 25.16 22.2 71.9 24 1 33.7
13:00 1023 30.21 852 25.16 22.3 72.1 24 1.2 34.1
13:05 1023 30.21 852 25.16 22.1 71.9 24 0.6 33
13:10 1023 30.21 852 25.16 22.4 72.3 24 0.7 33.3
13:15 1023 30.21 852 25.16 22.4 72.4 23 0.8 33.4
13:20 1023 30.21 852 25.16 22.7 72.8 24 1 33.9
13:25 1023 30.21 852 25.16 21.7 71.1 25 0.8 33.4
13:30 1023 30.21 852 25.16 21.1 70 25 0.4 32.6
13:35 1023 30.21 852 25.16 22.1 71.7 23 0.3 32.6
13:40 1023 30.21 852 25.16 23.1 73.6 22 0.7 33.3
13:45 1023 30.21 852 25.16 23.3 73.9 23 1.2 34.2
13:50 1023 30.21 852 25.16 23.6 74.5 22 0.8 33.4
13:55 1023 30.21 852 25.16 23.9 75.1 20 -0 32
14:00 1023 30.21 852 25.16 24.2 75.6 21 1 33.7
14:05 1023 30.21 852 25.16 23.9 75 21 0.4 32.8
14:10 1023 30.21 852 25.16 24.5 76.1 20 0 32.1
14:15 1023 30.21 852 25.16 24.3 75.7 21 0.5 32.9
14:20 1023 30.21 852 25.16 24.3 75.8 20 0.2 32.3
14:25 1022 30.18 852 25.16 22.8 73 21 -0.5 31.1
14:30 1022 30.18 852 25.16 23.8 74.8 20 -0.4 31.3
14:35 1022 30.18 852 25.16 24.3 75.8 18 -1.2 29.8
14:40 1022 30.18 852 25.16 24.3 75.7 19 -0.9 30.4
14:45 1022 30.18 851 25.13 22.9 73.3 19 -1.9 28.5
14:50 1022 30.18 851 25.13 24 75.1 18 -1.2 29.8
14:55 1022 30.18 851 25.13 24 75.2 17 -2.4 27.8
15:00 1022 30.18 851 25.13 23.4 74.2 18 -2.4 27.8
15:05 1022 30.18 851 25.13 23 73.4 17 -2.8 26.9
15:10 1022 30.18 851 25.13 22.8 73.1 19 -2 28.5
15:15 1022 30.18 851 25.13 23.1 73.6 17 -3.1 26.4
15:20 1022 30.18 851 25.13 23.4 74.1 17 -2.9 26.7
15:25 1022 30.18 851 25.13 24.4 75.8 18 -1.6 29.1
15:30 1022 30.18 851 25.13 24.2 75.6 17 -1.9 28.6
15:35 1022 30.18 851 25.13 23.8 74.8 15 -4.1 24.6
15:40 1022 30.18 851 25.13 24 75.3 16 -3.5 25.6
15:45 1022 30.18 851 25.13 23.3 74 15 -4.2 24.4
15:50 1022 30.18 851 25.13 23 73.4 15 -4.6 23.7
15:55 1022 30.18 851 25.13 23 73.5 14 -5.3 22.4
16:00 1022 30.18 851 25.13 23.4 74.1 14 -5.3 22.5
16:05 1021 30.15 851 25.13 24.1 75.5 15 -3.6 25.6
16:10 1021 30.15 851 25.13 24.5 76.1 14 -4.2 24.5
16:15 1021 30.15 851 25.13 24.6 76.2 16 -2.9 26.7
16:20 1021 30.15 851 25.13 24.6 76.2 14 -4.4 24.1
16:25 1021 30.15 851 25.13 23.4 74.1 15 -4.7 23.6
16:30 1021 30.15 850 25.1 23.7 74.6 15 -4.3 24.2
16:35 1021 30.15 850 25.1 23.7 74.7 15 -4.4 24
16:40 1021 30.15 850 25.1 23.6 74.4 14 -5.1 22.9
16:45 1021 30.15 850 25.1 24.1 75.4 14 -4.9 23.1
16:50 1021 30.15 850 25.1 23.9 75.1 14 -4.7 23.5
16:55 1021 30.15 850 25.1 24.2 75.6 14 -4.7 23.5
17:00 1021 30.15 850 25.1 24.6 76.3 13 -5.2 22.7
17:05 1021 30.15 850 25.1 24.1 75.4 12 -7.1 19.1
17:10 1021 30.15 850 25.1 24.2 75.5 11 -8 17.6
17:15 1021 30.15 850 25.1 24.4 76 11 -8 17.6
17:20 1021 30.15 850 25.1 24.2 75.6 12 -7 19.4
17:25 1021 30.15 850 25.1 23.4 74.2 11 -8.6 16.6
17:30 1021 30.15 850 25.1 23.3 74 10 -9.7 14.6
17:35 1021 30.15 850 25.1 23.3 73.9 9 -11.2 11.9
17:40 1021 30.15 850 25.1 23.3 74 9 -11.5 11.2
17:45 1021 30.15 850 25.1 23.4 74.2 8 -11.9 10.5
17:50 1021 30.15 850 25.1 23.2 73.8 8 -12 10.3
17:55 1021 30.15 850 25.1 23.1 73.6 8 -12.3 9.9
18:00 1021 30.15 850 25.1 23 73.3 8 -12.5 9.5
18:05 1021 30.15 850 25.1 23 73.4 9 -11.5 11.2
18:10 1020 30.12 850 25.1 23.1 73.5 9 -12 10.3
18:15 1020 30.12 850 25.1 22.9 73.3 13 -6.3 20.6
18:20 1020 30.12 850 25.1 22.6 72.7 14 -6.3 20.6
18:25 1020 30.12 849 25.07 22.6 72.7 12 -8.6 16.5
18:30 1020 30.12 849 25.07 22.6 72.7 11 -9.2 15.5
18:35 1020 30.12 849 25.07 22.6 72.7 11 -9.1 15.5
18:40 1020 30.12 849 25.07 22.6 72.8 11 -8.7 16.4
18:45 1020 30.12 849 25.07 22.5 72.5 13 -6.7 19.9
18:50 1020 30.12 849 25.07 22.3 72.1 14 -6.2 20.8
18:55 1020 30.12 849 25.07 22 71.6 14 -6.1 21
19:00 1020 30.12 849 25.07 21.9 71.3 14 -6.2 20.8
19:05 1020 30.12 849 25.07 21.7 71.1 15 -5.7 21.7
19:10 1020 30.12 849 25.07 21.4 70.6 17 -4.1 24.6
19:15 1020 30.12 849 25.07 21.1 69.9 17 -5.1 22.8
19:20 1020 30.12 849 25.07 20.8 69.4 17 -4.9 23.1
19:25 1020 30.12 849 25.07 20.6 69 18 -4.6 23.7
19:30 1020 30.12 849 25.07 20.3 68.5 19 -3.7 25.3
19:35 1020 30.12 849 25.07 19.9 67.9 20 -3.2 26.2
19:40 1020 30.12 849 25.07 19.1 66.4 22 -3.1 26.4
19:45 1020 30.12 849 25.07 18.4 65.1 24 -2.1 28.2
19:50 1020 30.12 849 25.07 17.5 63.5 25 -2.8 26.9
19:55 1020 30.12 849 25.07 17 62.6 22 -4.6 23.8
20:00 1020 30.12 849 25.07 16.6 61.9 22 -5 23
20:05 1020 30.12 849 25.07 16.5 61.8 23 -4.4 24.2
20:10 1020 30.12 849 25.07 16.2 61.1 25 -3.9 24.9
20:15 1020 30.12 849 25.07 15.9 60.6 24 -4.4 24
20:20 1020 30.12 849 25.07 16 60.8 25 -4.1 24.6
20:25 1020 30.12 849 25.07 15.5 60 27 -3.5 25.8
20:30 1020 30.12 849 25.07 15 58.9 28 -3.4 25.9
20:35 1020 30.12 849 25.07 14.6 58.3 28 -3.4 25.8
20:40 1020 30.12 849 25.07 14.4 57.8 28 -3.7 25.4
20:45 1020 30.12 849 25.07 14.3 57.8 28 -3.7 25.4
20:50 1020 30.12 849 25.07 14.2 57.5 29 -3.7 25.4
20:55 1020 30.12 849 25.07 14 57.3 28 -4.2 24.4
21:00 1020 30.12 849 25.07 14.3 57.7 27 -4.3 24.2
21:05 1020 30.12 849 25.07 14.4 58 27 -4.4 24.1
21:10 1020 30.12 849 25.07 14.2 57.6 28 -4 24.8
21:15 1020 30.12 849 25.07 13.9 57 30 -3.5 25.6
21:20 1020 30.12 849 25.07 13.8 56.9 29 -3.9 25
21:25 1020 30.12 849 25.07 13.5 56.3 30 -3.6 25.5
21:30 1020 30.12 849 25.07 13.1 55.5 31 -3.8 25.2
21:35 1020 30.12 849 25.07 13 55.4 30 -4.2 24.4
21:40 1020 30.12 849 25.07 13.1 55.6 29 -4.6 23.6
21:45 1020 30.12 849 25.07 13.2 55.7 29 -4.2 24.4
21:50 1020 30.12 849 25.07 12.8 55 30 -4.2 24.5
21:55 1020 30.12 849 25.07 12.6 54.7 31 -3.9 24.9
22:00 1020 30.12 849 25.07 12.4 54.3 31 -4.1 24.7
22:05 1020 30.12 849 25.07 12.5 54.5 30 -4.8 23.4
22:10 1019 30.09 849 25.07 13 55.4 28 -4.9 23.2
22:15 1019 30.09 849 25.07 13.4 56 28 -4.9 23.2
22:20 1019 30.09 849 25.07 13.4 56.2 28 -4.4 24
22:25 1019 30.09 849 25.07 13.4 56.1 29 -4.3 24.3
22:30 1019 30.09 849 25.07 13.2 55.7 30 -3.8 25.2
22:35 1019 30.09 849 25.07 13.1 55.5 32 -3.4 25.9
22:40 1019 30.09 849 25.07 13 55.4 30 -3.9 25
22:45 1019 30.09 848 25.04 13 55.5 30 -4.2 24.4
22:50 1019 30.09 848 25.04 13.2 55.8 30 -4.1 24.6
22:55 1019 30.09 848 25.04 13.4 56.1 29 -4.4 24
23:00 1019 30.09 848 25.04 13.5 56.4 29 -4.2 24.5
23:05 1019 30.09 848 25.04 13.3 55.9 30 -3.8 25.2
23:10 1019 30.09 848 25.04 13.1 55.5 30 -3.9 24.9
23:15 1019 30.09 848 25.04 13.1 55.6 29 -4.4 24.1
23:20 1019 30.09 848 25.04 13.3 56 29 -4.2 24.5
23:25 1019 30.09 848 25.04 13.6 56.4 28 -4.7 23.6
23:30 1019 30.09 848 25.04 14.1 57.3 27 -4.6 23.7
23:35 1019 30.09 848 25.04 14.2 57.5 27 -4.7 23.5
23:40 1019 30.09 848 25.04 14.2 57.6 27 -4.6 23.8
23:45 1019 30.09 848 25.04 14.2 57.5 28 -4.1 24.6
23:50 1019 30.09 848 25.04 14.2 57.5 28 -3.8 25.2
23:55 1019 30.09 848 25.04 14.1 57.4 28 -4.2 24.5
24:00 1019 30.09 848 25.04 13.9 57.1 29 -3.7 25.3